Time;durP1;ratioP1;P1;durP2;ratioP2;P2;SDS_P1;SDS_P2;PMS_P1;PMS_P2;Temp;Humidity;BMP_temperature;BMP_pressure;BME280_temperature;BME280_humidity;BME280_pressure;Samples;Min_cycle;Max_cycle;Signal;HPM_P1;HPM_P2
2022/10/14 00:01:20;;;;;;;19.45;12.15;;;11.70;99.90;;;;;;6216140;23;20873;-90
2022/10/14 00:04:07;;;;;;;18.92;11.35;;;11.70;1.00;;;;;;6216832;23;20029;-90
2022/10/14 00:06:55;;;;;;;19.13;11.52;;;11.70;1.00;;;;;;6217391;23;20099;-90
2022/10/14 00:09:42;;;;;;;18.08;11.88;;;11.70;1.00;;;;;;6216301;23;20030;-91
2022/10/14 00:12:31;;;;;;;21.30;12.93;;;11.70;1.00;;;;;;6217280;23;20416;-89
2022/10/14 00:15:20;;;;;;;21.58;11.57;;;11.70;54.70;;;;;;6220075;23;20051;-90
2022/10/14 00:18:08;;;;;;;21.50;12.63;;;11.70;99.90;;;;;;6219946;23;20031;-91
2022/10/14 00:21:00;;;;;;;21.55;12.73;;;11.60;99.90;;;;;;6218502;23;20029;-90
2022/10/14 00:23:50;;;;;;;18.45;12.07;;;11.60;99.90;;;;;;6226160;22;20024;-91
2022/10/14 00:26:39;;;;;;;19.80;11.90;;;11.60;99.90;;;;;;6229081;23;20024;-90
2022/10/14 00:29:26;;;;;;;23.20;12.45;;;11.60;1.00;;;;;;6219313;22;20089;-90
2022/10/14 00:32:14;;;;;;;20.17;12.23;;;11.60;91.30;;;;;;6217659;23;20024;-91
2022/10/14 00:35:01;;;;;;;22.98;13.27;;;11.60;99.90;;;;;;6219180;22;20029;-90
2022/10/14 00:37:48;;;;;;;20.13;12.23;;;11.70;99.90;;;;;;6218491;23;20310;-91
2022/10/14 00:40:35;;;;;;;24.80;13.38;;;11.70;1.00;;;;;;6218126;23;20072;-91
2022/10/14 00:43:24;;;;;;;21.27;13.93;;;11.70;1.00;;;;;;6217351;23;20028;-90
2022/10/14 00:46:11;;;;;;;17.98;13.18;;;11.70;99.90;;;;;;6219606;22;20435;-90
2022/10/14 00:49:04;;;;;;;26.13;13.52;;;11.70;99.90;;;;;;6215581;23;20472;-91
2022/10/14 00:51:55;;;;;;;26.85;15.05;;;11.80;1.00;;;;;;6219461;22;20099;-90
2022/10/14 00:55:00;;;;;;;25.42;14.50;;;11.80;1.00;;;;;;6219908;23;20099;-90
2022/10/14 00:57:47;;;;;;;22.52;14.65;;;11.80;99.90;;;;;;6218148;23;20176;-89
2022/10/14 01:00:35;;;;;;;24.65;15.68;;;11.80;99.90;;;;;;6218606;23;20048;-89
2022/10/14 01:03:22;;;;;;;26.90;15.73;;;11.90;6.40;;;;;;6218683;23;20035;-89
2022/10/14 01:06:15;;;;;;;20.67;14.27;;;11.90;99.90;;;;;;6219296;23;20038;-91
2022/10/14 01:09:37;;;;;;;26.58;15.32;;;11.80;99.90;;;;;;6217168;23;20063;-91
2022/10/14 01:12:32;;;;;;;26.42;15.80;;;11.80;1.00;;;;;;6220534;22;20030;-89
2022/10/14 01:15:42;;;;;;;23.98;15.80;;;11.80;1.00;;;;;;6218054;23;20048;-92
2022/10/14 01:18:37;;;;;;;25.55;15.20;;;11.80;1.00;;;;;;6220287;22;20108;-90
2022/10/14 01:22:16;;;;;;;27.48;17.00;;;11.90;1.00;;;;;;6220443;23;20024;-90
2022/10/14 01:25:23;;;;;;;;;;;11.90;99.90;;;;;;6129252;23;20026;-89
2022/10/14 01:28:31;;;;;;;23.90;15.52;;;11.90;12.60;;;;;;6216904;23;19924;-90
2022/10/14 01:31:26;;;;;;;30.52;15.38;;;11.90;1.00;;;;;;6219950;23;20020;-91
2022/10/14 01:34:23;;;;;;;24.77;13.80;;;11.90;99.90;;;;;;6218641;23;20031;-90
2022/10/14 01:37:19;;;;;;;24.70;14.25;;;12.00;99.90;;;;;;6219743;23;20024;-91
2022/10/14 01:40:14;;;;;;;26.38;15.07;;;11.90;74.70;;;;;;6219947;23;20088;-89
2022/10/14 01:43:04;;;;;;;28.48;14.50;;;12.00;1.00;;;;;;6219523;23;20029;-92
2022/10/14 01:45:55;;;;;;;23.67;14.20;;;11.90;1.00;;;;;;6219879;23;20028;-90
2022/10/14 01:48:52;;;;;;;21.63;13.38;;;11.90;1.00;;;;;;6219622;23;20028;-92
2022/10/14 01:51:53;;;;;;;23.02;13.63;;;11.90;1.00;;;;;;6215265;22;20059;-91
2022/10/14 01:54:43;;;;;;;26.15;15.20;;;11.90;11.90;;;;;;6217339;23;20029;-91
2022/10/14 01:57:35;;;;;;;25.80;14.45;;;11.90;79.20;;;;;;6219529;23;20059;-90
2022/10/14 02:00:22;;;;;;;21.95;14.00;;;11.90;80.10;;;;;;6219106;23;20020;-88
2022/10/14 02:03:13;;;;;;;27.35;15.23;;;11.90;99.90;;;;;;6218528;23;20125;-91
2022/10/14 02:06:07;;;;;;;23.38;14.55;;;11.90;99.90;;;;;;6216811;23;20352;-91
2022/10/14 02:09:07;;;;;;;21.98;13.73;;;11.90;99.90;;;;;;6219362;23;20490;-90
2022/10/14 02:12:16;;;;;;;21.67;13.43;;;11.90;99.90;;;;;;6219770;23;20418;-90
2022/10/14 02:15:18;;;;;;;26.20;14.38;;;11.90;99.90;;;;;;6217264;23;20108;-91
2022/10/14 02:18:17;;;;;;;23.17;12.60;;;11.90;99.90;;;;;;6217037;23;20035;-89
2022/10/14 02:21:29;;;;;;;23.90;14.20;;;11.90;99.90;;;;;;6219961;23;20089;-92
2022/10/14 02:24:38;;;;;;;22.08;13.73;;;11.90;99.90;;;;;;6218275;23;20020;-92
2022/10/14 02:27:27;;;;;;;22.55;12.77;;;11.80;99.90;;;;;;6218540;23;20031;-92
2022/10/14 02:30:15;;;;;;;21.88;13.77;;;11.80;99.90;;;;;;6219789;23;20100;-91
2022/10/14 02:33:04;;;;;;;22.92;12.75;;;11.80;99.90;;;;;;6220043;22;20092;-91
2022/10/14 02:35:53;;;;;;;21.10;13.07;;;11.80;1.00;;;;;;6219030;23;20070;-92
2022/10/14 02:38:41;;;;;;;22.17;12.50;;;11.90;5.90;;;;;;6218671;23;20024;-92
2022/10/14 02:41:34;;;;;;;20.58;13.63;;;11.80;27.00;;;;;;6216201;23;20331;-92
2022/10/14 02:44:21;;;;;;;18.08;12.45;;;11.80;42.40;;;;;;6222877;23;20033;-90
2022/10/14 02:47:08;;;;;;;21.70;13.70;;;11.80;99.90;;;;;;6216319;23;20024;-91
2022/10/14 02:49:55;;;;;;;36.20;14.57;;;11.70;99.90;;;;;;6220620;23;20028;-93
2022/10/14 02:52:42;;;;;;;22.55;12.73;;;11.70;30.60;;;;;;6226103;23;20031;-90
2022/10/14 02:55:29;;;;;;;24.80;14.23;;;11.70;99.90;;;;;;6225434;23;20052;-91
2022/10/14 02:58:17;;;;;;;27.73;13.93;;;11.60;99.90;;;;;;6223684;23;20049;-90
2022/10/14 03:01:04;;;;;;;20.35;13.60;;;11.60;1.00;;;;;;6228821;22;20025;-91
2022/10/14 03:03:51;;;;;;;25.10;14.90;;;11.60;99.90;;;;;;6225777;23;20033;-92
2022/10/14 03:06:38;;;;;;;23.63;15.05;;;11.50;95.30;;;;;;6227799;23;20040;-90
2022/10/14 03:09:28;;;;;;;21.42;13.85;;;11.50;99.90;;;;;;6233089;23;20321;-93
2022/10/14 03:12:15;;;;;;;26.08;13.38;;;11.40;99.90;;;;;;6229299;23;20024;-91
2022/10/14 03:15:06;;;;;;;23.13;14.30;;;11.40;1.00;;;;;;6227555;23;20296;-91
2022/10/14 03:17:53;;;;;;;33.38;15.82;;;11.40;1.00;;;;;;6221127;23;20035;-90
2022/10/14 03:20:43;;;;;;;21.95;15.00;;;11.30;1.00;;;;;;6216139;23;20072;-91
2022/10/14 03:23:33;;;;;;;23.08;15.32;;;11.30;34.30;;;;;;6218588;23;20431;-92
2022/10/14 03:26:20;;;;;;;28.63;16.20;;;11.30;85.10;;;;;;6216885;23;20075;-90
2022/10/14 03:29:07;;;;;;;27.20;16.15;;;11.30;99.90;;;;;;6217635;23;20105;-92
2022/10/14 03:31:54;;;;;;;26.38;16.05;;;11.30;99.90;;;;;;6218144;23;20052;-92
2022/10/14 03:34:41;;;;;;;26.65;14.60;;;11.30;99.90;;;;;;6217180;23;20039;-90
2022/10/14 03:37:28;;;;;;;22.88;14.85;;;11.30;99.90;;;;;;6215673;23;20032;-91
2022/10/14 03:40:16;;;;;;;17.40;13.60;;;11.30;99.90;;;;;;6214693;23;20040;-91
2022/10/14 03:43:05;;;;;;;23.70;13.52;;;11.30;99.90;;;;;;6214910;23;20036;-90
2022/10/14 03:45:52;;;;;;;25.30;13.93;;;11.30;99.90;;;;;;6218283;23;20091;-91
2022/10/14 03:48:43;;;;;;;20.80;12.73;;;11.30;99.90;;;;;;6219334;23;20078;-91
2022/10/14 03:51:31;;;;;;;25.40;13.48;;;11.30;99.90;;;;;;6216641;23;20355;-90
2022/10/14 03:54:19;;;;;;;22.17;11.10;;;11.30;99.90;;;;;;6216545;23;20099;-91
2022/10/14 03:57:06;;;;;;;22.70;12.20;;;11.30;99.90;;;;;;6216885;22;20025;-90
2022/10/14 03:59:53;;;;;;;20.55;11.52;;;11.30;99.90;;;;;;6217246;23;20093;-90
2022/10/14 04:02:41;;;;;;;20.38;11.35;;;11.30;99.90;;;;;;6216356;23;20029;-90
2022/10/14 04:05:32;;;;;;;20.35;11.45;;;11.30;99.90;;;;;;6218182;23;20127;-92
2022/10/14 04:08:19;;;;;;;25.38;11.77;;;11.30;99.90;;;;;;6220097;22;20035;-91
2022/10/14 04:11:07;;;;;;;23.17;11.50;;;11.30;99.90;;;;;;6220985;23;20035;-91
2022/10/14 04:13:57;;;;;;;20.88;11.73;;;11.30;99.90;;;;;;6219989;23;20059;-91
2022/10/14 04:16:44;;;;;;;14.93;9.80;;;11.30;99.90;;;;;;6217766;23;20118;-90
2022/10/14 04:19:36;;;;;;;22.23;13.45;;;11.30;99.90;;;;;;6213012;23;20047;-91
2022/10/14 04:22:23;;;;;;;17.90;12.32;;;11.30;99.90;;;;;;6217652;23;20028;-90
2022/10/14 04:25:11;;;;;;;23.27;11.35;;;11.30;99.90;;;;;;6217366;23;20367;-91
2022/10/14 04:27:58;;;;;;;19.73;11.60;;;11.30;99.90;;;;;;6222806;23;20024;-91
2022/10/14 04:30:45;;;;;;;19.40;10.55;;;11.20;99.90;;;;;;6219998;23;20434;-90
2022/10/14 04:33:33;;;;;;;18.92;10.80;;;11.20;99.90;;;;;;6219524;23;20024;-89
2022/10/14 04:36:21;;;;;;;28.98;15.65;;;11.20;99.90;;;;;;6223157;23;20270;-92
2022/10/14 04:39:10;;;;;;;26.05;14.27;;;11.20;99.90;;;;;;6218502;23;20044;-89
2022/10/14 04:42:00;;;;;;;23.80;14.85;;;11.20;99.90;;;;;;6220078;22;20028;-91
2022/10/14 04:44:47;;;;;;;19.67;13.65;;;11.10;99.90;;;;;;6216551;23;20103;-88
2022/10/14 04:47:34;;;;;;;25.05;14.07;;;11.10;99.90;;;;;;6217090;23;20039;-89
2022/10/14 04:50:24;;;;;;;22.05;14.20;;;11.10;99.90;;;;;;6219803;23;20122;-91
2022/10/14 04:53:11;;;;;;;25.50;15.13;;;11.10;99.90;;;;;;6216705;23;20030;-92
2022/10/14 04:56:00;;;;;;;28.15;17.95;;;11.10;99.90;;;;;;6217457;23;20147;-92
2022/10/14 04:58:48;;;;;;;27.90;17.15;;;11.00;99.90;;;;;;6218094;23;20304;-90
2022/10/14 05:01:35;;;;;;;25.17;15.10;;;11.00;99.90;;;;;;6220732;23;20282;-91
2022/10/14 05:04:22;;;;;;;28.88;16.50;;;11.00;99.90;;;;;;6221387;23;20025;-92
2022/10/14 05:07:09;;;;;;;25.52;15.90;;;11.00;99.90;;;;;;6217630;23;20103;-89
2022/10/14 05:09:57;;;;;;;26.70;16.08;;;11.00;99.90;;;;;;6219181;23;20032;-93
2022/10/14 05:12:44;;;;;;;25.67;15.07;;;11.00;99.90;;;;;;6218919;23;20059;-92
2022/10/14 05:15:32;;;;;;;20.52;13.15;;;11.00;99.90;;;;;;6220429;23;20040;-92
2022/10/14 05:18:19;;;;;;;23.25;13.05;;;11.00;99.90;;;;;;6218019;23;20112;-93
2022/10/14 05:21:07;;;;;;;16.25;10.48;;;11.10;99.90;;;;;;6221694;22;20052;-93
2022/10/14 05:23:54;;;;;;;21.23;10.77;;;11.10;99.90;;;;;;6220578;23;20039;-92
2022/10/14 05:26:41;;;;;;;18.98;10.55;;;11.20;99.90;;;;;;6218198;23;20402;-92
2022/10/14 05:29:29;;;;;;;18.98;9.63;;;11.20;49.40;;;;;;6219187;23;20036;-91
2022/10/14 05:32:31;;;;;;;15.38;11.15;;;11.30;1.00;;;;;;6214158;23;20024;-92
2022/10/14 05:35:18;;;;;;;16.98;10.30;;;11.30;1.00;;;;;;6219898;23;20017;-91
2022/10/14 05:38:34;;;;;;;19.17;11.60;;;11.30;1.00;;;;;;6217759;23;20031;-91
2022/10/14 05:45:40;;;;;;;18.13;11.27;;;11.30;1.00;;;;;;6217726;23;20005;-90
2022/10/14 05:48:42;;;;;;;21.38;10.20;;;11.20;99.90;;;;;;6217124;23;20052;-89
2022/10/14 05:51:30;;;;;;;16.75;9.85;;;11.30;99.90;;;;;;6214487;23;20025;-90
2022/10/14 05:54:17;;;;;;;16.92;9.75;;;11.30;99.90;;;;;;6215050;23;20356;-87
2022/10/14 05:57:10;;;;;;;16.50;9.15;;;11.30;99.90;;;;;;6214015;23;20094;-89
2022/10/14 06:00:09;;;;;;;16.80;9.30;;;11.40;1.00;;;;;;6214614;23;20107;-88
2022/10/14 06:10:53;;;;;;;12.80;7.38;;;11.50;99.90;;;;;;6215075;23;20095;-89
2022/10/14 06:13:41;;;;;;;14.13;6.97;;;11.60;1.00;;;;;;6215914;23;20596;-89
2022/10/14 06:16:28;;;;;;;14.20;7.80;;;11.60;99.90;;;;;;6219676;23;20027;-88
2022/10/14 06:19:15;;;;;;;11.65;7.07;;;11.60;99.90;;;;;;6217886;23;20082;-91
2022/10/14 06:22:04;;;;;;;17.33;7.32;;;11.60;99.90;;;;;;6218054;22;20024;-91
2022/10/14 06:29:50;;;;;;;22.48;6.75;;;11.70;99.90;;;;;;6218959;23;20082;-93
2022/10/14 06:32:37;;;;;;;18.48;7.85;;;11.80;99.90;;;;;;6214869;23;20052;-91
2022/10/14 06:35:41;;;;;;;20.25;7.85;;;11.90;99.90;;;;;;6218829;23;20031;-91
2022/10/14 06:39:03;;;;;;;14.10;8.75;;;11.90;99.90;;;;;;6219786;23;20025;-92
2022/10/14 06:42:20;;;;;;;15.80;9.30;;;12.00;99.90;;;;;;6219691;22;20039;-91
2022/10/14 06:45:08;;;;;;;14.68;8.70;;;12.10;99.90;;;;;;6216245;23;20028;-90
2022/10/14 06:48:20;;;;;;;19.77;9.70;;;12.20;99.90;;;;;;6216480;23;20031;-90
2022/10/14 06:51:14;;;;;;;15.23;8.10;;;12.30;99.90;;;;;;6213244;23;20025;-85
2022/10/14 06:54:01;;;;;;;12.27;7.20;;;12.30;99.90;;;;;;6217082;23;20408;-91
2022/10/14 06:56:48;;;;;;;14.73;8.20;;;12.30;99.90;;;;;;6213206;23;20020;-90
2022/10/14 07:04:31;;;;;;;13.43;7.63;;;12.20;99.90;;;;;;6218068;23;20035;-89
2022/10/14 07:07:18;;;;;;;21.35;8.75;;;12.20;99.90;;;;;;6218402;22;20048;-89
2022/10/14 07:10:13;;;;;;;10.60;7.57;;;12.20;99.90;;;;;;6215152;23;20099;-91
2022/10/14 07:13:03;;;;;;;32.63;13.65;;;12.20;95.80;;;;;;6215030;23;20028;-90
2022/10/14 07:15:59;;;;;;;13.60;7.43;;;12.30;22.20;;;;;;6216874;23;20032;-90
2022/10/14 07:18:46;;;;;;;14.50;6.18;;;12.40;1.00;;;;;;6217389;23;20034;-92
2022/10/14 07:21:34;;;;;;;16.73;7.13;;;12.60;1.00;;;;;;6219597;23;20096;-92
2022/10/14 07:24:28;;;;;;;13.25;6.70;;;12.70;99.90;;;;;;6216633;23;20043;-92
2022/10/14 07:27:22;;;;;;;8.80;5.97;;;12.80;99.90;;;;;;6217946;23;20032;-89
2022/10/14 07:30:14;;;;;;;16.70;6.50;;;12.90;99.90;;;;;;6216243;23;20028;-90
2022/10/14 07:33:06;;;;;;;17.88;5.10;;;13.00;99.90;;;;;;6218111;22;20450;-90
2022/10/14 07:36:12;;;;;;;15.02;6.75;;;13.10;21.60;;;;;;6216552;23;20032;-92
2022/10/14 07:39:12;;;;;;;12.73;6.18;;;13.30;33.00;;;;;;6217251;22;20419;-91
2022/10/14 07:41:59;;;;;;;9.82;5.82;;;13.40;1.00;;;;;;6215744;23;20025;-88
2022/10/14 07:44:46;;;;;;;12.52;5.82;;;13.50;1.00;;;;;;6213804;23;20296;-86
2022/10/14 07:47:44;;;;;;;10.68;6.00;;;13.40;1.00;;;;;;6216141;23;20028;-93
2022/10/14 07:50:41;;;;;;;11.27;5.95;;;13.50;99.90;;;;;;6216840;23;20031;-89
2022/10/14 07:53:44;;;;;;;15.90;6.40;;;13.60;99.90;;;;;;6196167;23;20087;-90
2022/10/14 07:56:33;;;;;;;15.80;5.53;;;13.70;99.90;;;;;;6218332;23;20041;-90
2022/10/14 07:59:26;;;;;;;9.63;5.20;;;13.90;99.90;;;;;;6194630;23;20024;-91
2022/10/14 08:02:23;;;;;;;10.43;5.38;;;14.00;99.90;;;;;;6192592;23;20099;-89
2022/10/14 08:05:20;;;;;;;11.02;5.03;;;14.20;99.90;;;;;;6198633;23;20399;-89
2022/10/14 08:08:48;;;;;;;16.05;5.40;;;14.30;99.90;;;;;;6202085;23;20076;-93
2022/10/14 08:11:45;;;;;;;10.10;5.10;;;14.60;99.90;;;;;;6224499;23;20020;-91
2022/10/14 08:14:35;;;;;;;8.85;4.82;;;14.80;99.90;;;;;;6219036;23;20035;-90
2022/10/14 08:17:22;;;;;;;11.07;4.78;;;15.10;99.90;;;;;;6196253;23;20292;-90
2022/10/14 08:20:13;;;;;;;8.73;3.97;;;15.00;99.90;;;;;;6197629;23;20025;-92
2022/10/14 08:23:03;;;;;;;8.27;4.53;;;15.00;46.40;;;;;;6195505;23;20187;-89
2022/10/14 08:25:51;;;;;;;8.05;4.68;;;14.90;31.80;;;;;;6218474;23;20107;-90
2022/10/14 08:28:40;;;;;;;14.05;5.25;;;14.80;15.30;;;;;;6218793;23;20028;-90
2022/10/14 08:31:45;;;;;;;8.88;4.90;;;14.90;96.60;;;;;;6195210;23;20025;-90
2022/10/14 08:35:04;;;;;;;17.10;5.22;;;14.90;78.10;;;;;;6219280;23;20099;-90
2022/10/14 08:38:10;;;;;;;9.35;4.93;;;14.60;64.40;;;;;;6198415;23;20024;-92
2022/10/14 08:41:15;;;;;;;16.58;4.50;;;14.40;99.90;;;;;;6217050;23;20024;-88
2022/10/14 08:44:18;;;;;;;7.97;4.47;;;14.20;99.90;;;;;;6196331;23;20042;-89
2022/10/14 08:47:12;;;;;;;5.07;4.07;;;14.00;99.90;;;;;;6219043;23;20025;-89
2022/10/14 08:50:25;;;;;;;9.82;3.92;;;13.80;99.90;;;;;;6216904;23;20286;-87
2022/10/14 08:53:23;;;;;;;6.38;4.20;;;13.90;99.90;;;;;;6220093;23;20029;-91
2022/10/14 08:56:13;;;;;;;8.52;4.38;;;14.10;99.90;;;;;;6218948;23;20091;-88
2022/10/14 08:59:06;;;;;;;8.27;4.22;;;14.20;99.90;;;;;;6222123;22;20022;-89
2022/10/14 09:02:19;;;;;;;10.60;4.00;;;14.30;99.90;;;;;;6219557;23;20122;-91
2022/10/14 09:05:20;;;;;;;10.38;4.13;;;14.50;99.90;;;;;;6219201;23;20075;-90
2022/10/14 09:08:17;;;;;;;8.38;4.60;;;14.70;94.50;;;;;;6218123;23;20055;-91
2022/10/14 09:11:13;;;;;;;7.97;4.15;;;15.00;56.20;;;;;;6224241;23;20440;-86
2022/10/14 09:14:05;;;;;;;12.63;4.10;;;15.10;24.30;;;;;;6227460;23;20089;-90
2022/10/14 09:17:04;;;;;;;10.23;4.03;;;15.50;18.90;;;;;;6217399;23;20032;-87
2022/10/14 09:20:05;;;;;;;6.63;3.58;;;15.70;1.00;;;;;;6218468;23;20106;-86
2022/10/14 09:23:24;;;;;;;5.03;3.28;;;15.60;1.00;;;;;;6216353;23;20802;-88
2022/10/14 09:26:18;;;;;;;5.95;3.40;;;16.10;1.00;;;;;;6218702;23;20213;-91
2022/10/14 09:29:18;;;;;;;6.78;3.30;;;16.10;1.00;;;;;;6219411;23;20035;-92
2022/10/14 09:32:14;;;;;;;7.95;3.33;;;16.00;1.00;;;;;;6222881;23;20020;-90
2022/10/14 09:35:15;;;;;;;8.48;3.50;;;15.70;1.00;;;;;;6228919;23;20051;-90
2022/10/14 09:38:31;;;;;;;9.10;3.95;;;15.70;1.00;;;;;;6217689;23;20432;-91
2022/10/14 09:41:36;;;;;;;10.70;4.03;;;15.70;1.00;;;;;;6220617;23;20074;-92
2022/10/14 09:44:33;;;;;;;12.10;3.80;;;15.90;1.00;;;;;;6219428;23;20464;-90
2022/10/14 09:47:28;;;;;;;7.45;4.25;;;16.00;99.90;;;;;;6219392;23;20040;-91
2022/10/14 09:54:52;;;;;;;8.85;3.85;;;16.40;99.90;;;;;;6221080;23;20032;-92
2022/10/14 09:58:16;;;;;;;10.63;4.60;;;16.30;99.90;;;;;;6225432;22;20128;-92
2022/10/14 10:01:42;;;;;;;9.50;5.07;;;16.10;99.90;;;;;;6226424;23;20031;-92
2022/10/14 10:05:18;;;;;;;9.88;4.45;;;16.30;99.90;;;;;;6222128;23;20339;-90
2022/10/14 10:08:16;;;;;;;8.57;4.30;;;16.50;99.90;;;;;;6224841;22;20095;-90
2022/10/14 10:11:17;;;;;;;6.90;4.25;;;16.40;99.90;;;;;;6222652;23;20094;-92
2022/10/14 10:14:32;;;;;;;8.13;4.43;;;16.30;99.90;;;;;;6220805;23;20028;-91
2022/10/14 10:17:40;;;;;;;9.32;4.57;;;15.80;99.90;;;;;;6219648;23;20020;-88
2022/10/14 10:20:32;;;;;;;7.45;4.60;;;15.70;1.00;;;;;;6219057;23;20034;-89
2022/10/14 10:23:24;;;;;;;12.15;4.85;;;15.70;1.00;;;;;;6222304;23;20032;-89
2022/10/14 10:26:40;;;;;;;8.45;4.32;;;15.60;1.00;;;;;;6224527;22;20024;-91
2022/10/14 10:29:33;;;;;;;9.73;4.40;;;15.70;1.00;;;;;;6226830;23;20032;-92
2022/10/14 10:32:29;;;;;;;8.07;4.32;;;15.70;1.00;;;;;;6228095;23;20024;-92
2022/10/14 10:35:30;;;;;;;6.85;4.57;;;15.70;1.00;;;;;;6227519;22;20357;-90
2022/10/14 10:38:48;;;;;;;9.48;4.35;;;15.60;1.00;;;;;;6236122;23;20027;-89
2022/10/14 10:42:02;;;;;;;11.77;5.07;;;15.60;1.00;;;;;;6238768;23;20027;-88
2022/10/14 10:45:14;;;;;;;7.53;4.70;;;15.60;1.00;;;;;;6233354;23;20304;-89
2022/10/14 10:48:41;;;;;;;8.30;4.50;;;15.40;1.00;;;;;;6228584;23;20070;-91
2022/10/14 10:51:53;;;;;;;9.50;5.18;;;15.30;1.00;;;;;;6227415;23;20416;-92
2022/10/14 10:55:27;;;;;;;12.35;6.32;;;15.00;1.00;;;;;;6221454;23;20021;-89
2022/10/14 10:58:55;;;;;;;13.73;6.20;;;14.60;75.50;;;;;;6221646;22;20020;-89
2022/10/14 11:02:12;;;;;;;8.60;5.93;;;14.50;99.90;;;;;;6177929;23;20450;-89
2022/10/14 11:05:20;;;;;;;10.38;5.90;;;14.40;99.90;;;;;;6217848;23;20600;-87
2022/10/14 11:12:05;;;;;;;9.70;5.15;;;14.50;1.00;;;;;;6214813;23;20032;-88
2022/10/14 11:15:22;;;;;;;10.77;5.40;;;14.50;1.00;;;;;;6220457;22;20108;-89
2022/10/14 11:18:13;;;;;;;9.23;5.03;;;14.60;1.00;;;;;;6216282;23;20024;-90
2022/10/14 11:21:43;;;;;;;7.60;4.60;;;14.80;1.00;;;;;;6219096;23;20033;-90
2022/10/14 11:25:05;;;;;;;7.40;4.03;;;15.00;99.90;;;;;;6210817;23;20036;-90
2022/10/14 11:28:00;;;;;;;;;;;15.30;99.90;;;;;;6220186;23;20025;-89
2022/10/14 11:31:27;;;;;;;7.03;3.80;;;15.60;99.90;;;;;;6221676;23;19946;-92
2022/10/14 11:34:27;;;;;;;7.57;3.28;;;15.80;99.90;;;;;;6211071;23;20301;-90
2022/10/14 11:37:20;;;;;;;5.75;3.38;;;15.90;99.90;;;;;;6219929;23;20020;-87
2022/10/14 11:40:25;;;;;;;5.15;3.40;;;15.90;36.20;;;;;;6218230;23;20025;-86
2022/10/14 11:43:26;;;;;;;6.25;2.90;;;15.80;17.60;;;;;;6219133;22;20036;-90
2022/10/14 11:46:19;;;;;;;5.28;3.40;;;15.80;32.60;;;;;;6216046;23;20080;-87
2022/10/14 11:49:22;;;;;;;16.63;3.17;;;16.00;10.70;;;;;;6195091;23;20021;-87
2022/10/14 11:52:18;;;;;;;4.80;2.85;;;16.40;1.00;;;;;;6216498;23;20035;-87
2022/10/14 11:55:56;;;;;;;;;;;;;;;;;;;;;
2022/10/14 12:00:07;;;;;;;3.35;2.42;;;16.70;1.00;;;;;;6183993;23;20008;-92
2022/10/14 12:03:08;;;;;;;4.68;2.10;;;17.00;1.00;;;;;;6099834;23;20031;-93
2022/10/14 12:06:08;;;;;;;5.68;3.00;;;16.70;1.00;;;;;;6186440;23;20308;-88
2022/10/14 12:09:42;;;;;;;3.95;2.83;;;16.50;1.00;;;;;;6218319;23;20016;-88
2022/10/14 12:13:06;;;;;;;;;;;;;;;;;;;;;
2022/10/14 12:16:23;;;;;;;4.63;2.50;;;16.00;1.00;;;;;;6224707;23;20019;-91
2022/10/14 12:19:14;;;;;;;3.45;2.28;;;15.90;1.00;;;;;;6217295;23;20024;-85
2022/10/14 12:22:25;;;;;;;3.50;2.33;;;16.10;1.00;;;;;;6216118;23;20466;-90
2022/10/14 12:25:16;;;;;;;5.00;2.13;;;16.10;1.00;;;;;;6216899;23;20025;-87
2022/10/14 12:28:19;;;;;;;3.22;1.90;;;16.10;1.00;;;;;;6218969;22;20028;-91
2022/10/14 12:31:48;;;;;;;2.63;2.03;;;16.20;1.00;;;;;;6221069;23;20028;-94
2022/10/14 12:34:41;;;;;;;2.20;1.60;;;16.20;1.00;;;;;;6222236;23;20092;-91
2022/10/14 12:37:36;;;;;;;2.25;1.85;;;16.20;1.00;;;;;;6217096;23;20037;-89
2022/10/14 12:40:26;;;;;;;2.50;1.55;;;16.10;1.00;;;;;;6218125;23;20035;-90
2022/10/14 12:43:23;;;;;;;10.68;1.98;;;16.30;1.00;;;;;;6218723;23;20035;-89
2022/10/14 12:46:14;;;;;;;2.80;1.67;;;16.30;1.00;;;;;;6217928;23;20016;-88
2022/10/14 12:49:37;;;;;;;3.88;1.90;;;16.20;1.00;;;;;;6217070;23;20066;-89
2022/10/14 12:52:27;;;;;;;;;;;16.10;1.00;;;;;;6220704;22;20052;-91
2022/10/14 12:55:17;;;;;;;2.40;1.73;;;16.00;1.00;;;;;;6215859;23;20015;-87
2022/10/14 12:58:24;;;;;;;1.95;1.60;;;16.00;1.00;;;;;;6220382;23;20055;-86
2022/10/14 13:01:23;;;;;;;3.95;1.70;;;15.90;1.00;;;;;;6218035;23;20021;-89
2022/10/14 13:04:18;;;;;;;1.98;1.52;;;15.90;1.00;;;;;;6219953;23;20111;-89
2022/10/14 13:07:25;;;;;;;4.68;1.83;;;15.90;1.00;;;;;;6217568;23;20029;-88
2022/10/14 13:10:37;;;;;;;4.88;1.88;;;15.70;1.00;;;;;;6216582;23;20036;-91
2022/10/14 13:13:38;;;;;;;2.70;1.58;;;15.70;1.00;;;;;;6219204;23;20436;-86
2022/10/14 13:16:26;;;;;;;1.90;1.70;;;15.80;1.00;;;;;;6221640;22;20105;-88
2022/10/14 13:19:39;;;;;;;3.40;1.95;;;16.00;1.00;;;;;;6222992;23;20102;-90
2022/10/14 13:22:27;;;;;;;5.63;2.00;;;16.10;1.00;;;;;;6224904;23;20038;-89
2022/10/14 13:25:25;;;;;;;2.63;1.75;;;16.30;1.00;;;;;;6216081;23;20055;-88
2022/10/14 13:28:49;;;;;;;2.65;1.92;;;16.50;1.00;;;;;;6218679;23;20456;-89
2022/10/14 13:31:46;;;;;;;4.03;1.60;;;16.60;1.00;;;;;;6184672;23;20515;-91
2022/10/14 13:34:54;;;;;;;2.55;1.80;;;16.50;1.00;;;;;;6219678;23;20107;-91
2022/10/14 13:38:11;;;;;;;2.53;2.00;;;16.40;1.00;;;;;;6216761;23;20418;-92
2022/10/14 13:41:01;;;;;;;2.97;1.80;;;16.40;1.00;;;;;;6220917;23;20025;-91
2022/10/14 13:43:54;;;;;;;2.13;1.80;;;16.30;1.00;;;;;;6219827;23;20021;-92
2022/10/14 13:46:44;;;;;;;3.50;1.80;;;16.20;1.00;;;;;;6218627;23;20347;-90
2022/10/14 13:49:36;;;;;;;3.42;2.65;;;16.20;1.00;;;;;;6220564;23;20110;-88
2022/10/14 13:52:27;;;;;;;5.28;2.30;;;16.00;16.50;;;;;;6219758;23;20088;-93
2022/10/14 13:55:18;;;;;;;2.08;1.73;;;15.70;94.20;;;;;;6218741;23;20028;-90
2022/10/14 13:58:23;;;;;;;2.00;1.80;;;15.70;99.90;;;;;;6220194;23;20028;-89
2022/10/14 14:01:17;;;;;;;1.90;1.70;;;15.80;99.90;;;;;;6219191;23;20104;-90
2022/10/14 14:04:05;;;;;;;2.03;1.52;;;16.00;99.90;;;;;;6218549;23;20032;-88
2022/10/14 14:07:13;;;;;;;4.30;1.80;;;15.90;51.70;;;;;;6219671;23;20031;-90
2022/10/14 14:10:34;;;;;;;1.95;1.75;;;16.00;33.70;;;;;;6218964;23;20096;-88
2022/10/14 14:17:26;;;;;;;4.43;1.77;;;16.10;3.20;;;;;;6220622;23;20020;-88
2022/10/14 14:20:25;;;;;;;2.20;1.52;;;16.00;1.00;;;;;;6218040;23;20025;-89
2022/10/14 14:23:13;;;;;;;2.65;1.60;;;16.00;5.50;;;;;;6220158;23;20400;-90
2022/10/14 14:26:04;;;;;;;2.40;1.73;;;15.90;17.40;;;;;;6223460;23;20324;-91
2022/10/14 14:29:13;;;;;;;3.38;1.70;;;16.00;29.00;;;;;;6224718;22;20038;-86
2022/10/14 14:32:03;;;;;;;1.63;1.42;;;16.00;33.80;;;;;;6223836;23;20029;-91
2022/10/14 14:34:55;;;;;;;3.22;1.70;;;15.90;25.90;;;;;;6239078;23;20036;-88
2022/10/14 14:37:48;;;;;;;4.45;1.52;;;15.90;38.50;;;;;;6241569;23;20009;-86
2022/10/14 14:40:43;;;;;;;2.13;1.55;;;15.90;54.10;;;;;;6239049;23;20024;-87
2022/10/14 14:43:31;;;;;;;4.00;1.63;;;15.70;81.90;;;;;;6239769;23;20051;-88
2022/10/14 14:46:36;;;;;;;2.63;1.85;;;15.50;99.90;;;;;;6240939;23;20025;-88
2022/10/14 14:49:31;;;;;;;4.43;2.00;;;15.30;99.90;;;;;;6242866;22;20024;-90
2022/10/14 14:52:19;;;;;;;2.70;2.17;;;15.10;99.90;;;;;;6235969;23;20068;-90
2022/10/14 14:55:32;;;;;;;4.35;2.20;;;15.00;99.90;;;;;;6234122;23;20120;-86
2022/10/14 14:58:43;;;;;;;4.78;1.85;;;14.80;1.00;;;;;;6233212;23;20328;-90
2022/10/14 15:01:30;;;;;;;2.67;2.20;;;14.70;31.60;;;;;;6237868;23;20142;-91
2022/10/14 15:04:24;;;;;;;3.13;2.50;;;14.70;99.90;;;;;;6221174;23;20028;-88
2022/10/14 15:07:20;;;;;;;4.15;2.38;;;14.70;99.90;;;;;;6221863;23;20159;-88
2022/10/14 15:10:21;;;;;;;3.17;2.22;;;14.70;99.90;;;;;;6224282;23;20088;-88
2022/10/14 15:13:26;;;;;;;2.40;2.20;;;14.70;99.90;;;;;;6223371;23;20144;-89
2022/10/14 15:16:31;;;;;;;5.85;3.50;;;14.60;1.00;;;;;;6219405;23;20056;-87
2022/10/14 15:19:19;;;;;;;5.25;2.72;;;14.60;1.00;;;;;;6219071;23;20024;-89
2022/10/14 15:22:15;;;;;;;4.78;3.10;;;14.50;22.60;;;;;;6218200;23;20025;-88
2022/10/14 15:25:07;;;;;;;5.68;3.15;;;14.50;99.90;;;;;;6217178;23;20039;-89
2022/10/14 15:27:56;;;;;;;6.05;4.22;;;14.40;1.00;;;;;;6217204;23;20436;-87
2022/10/14 15:30:51;;;;;;;4.90;3.40;;;14.30;99.90;;;;;;6217433;23;20028;-87
2022/10/14 15:33:42;;;;;;;4.28;3.38;;;14.30;99.90;;;;;;6218540;23;20379;-88
2022/10/14 15:36:31;;;;;;;5.65;3.00;;;14.20;1.00;;;;;;6215977;23;20031;-88
2022/10/14 15:39:20;;;;;;;7.22;3.10;;;14.10;99.90;;;;;;6218881;23;20097;-85
2022/10/14 15:42:11;;;;;;;6.10;3.22;;;14.10;1.00;;;;;;6216452;23;20059;-89
2022/10/14 15:44:59;;;;;;;5.70;3.20;;;14.00;99.90;;;;;;6219571;22;20024;-89
2022/10/14 15:47:53;;;;;;;4.85;2.78;;;14.00;99.90;;;;;;6214707;23;20086;-84
2022/10/14 15:50:44;;;;;;;3.28;2.90;;;13.90;1.00;;;;;;6219440;22;20036;-87